Weather History for KPPQ - January, 2004

Change the Weather History Date:

Sunday, January 11, 2004

  Actual Average (KUIN) Record (KUIN)
Temperature  
Mean Temperature 40 °F 26 °F  
Max Temperature 51 °F 34 °F 59 °F (2013)
Min Temperature 28 °F 18 °F -15 °F (1977)
Degree Days  
Heating Degree Days 26 39  
Month to date heating degree days 425  
Since 1 July heating degree days 2616  
Cooling Degree Days 0 0  
Month to date cooling degree days 0  
Year to date cooling degree days 0  
Moisture  
Dew Point 28 °F    
Average Humidity 68    
Maximum Humidity 87    
Minimum Humidity 50    
Precipitation  
Precipitation 0.00 in 0.04 in 1.06 in (1905)
Month to date precipitation 0.58  
Year to date precipitation 0.58  
Sea Level Pressure  
Sea Level Pressure 30.05 in    
Wind  
Wind Speed 10 mph (SW)    
Max Wind Speed 21 mph    
Max Gust Speed 32 mph    
Visibility 10 miles    
Events      
T = Trace of Precipitation, MM = Missing Value Source: NWS Daily Summary

Daily Weather History Graph

Daily Weather History Graph

Search for Another Location

Airport or City:

Trip Planner

Search our weather history database for the weather conditions in past years. The results will help you decide how hot, cold, wet, or windy it might be!

Date:

Astronomy

Jan. 11, 2004 Rise Set
Actual Time 7:23 AM CST 4:58 PM CST
Civil Twilight 6:53 AM CST 5:28 PM CST
Nautical Twilight 6:20 AM CST 6:01 PM CST
Astronomical Twilight 5:47 AM CST 6:34 PM CST
Moon 9:08 PM CST (1/11) 10:08 AM CST (1/11)
Length of Visible Light 10h 34m
Length of Day
9h 35m
Waning Gibbous, 84% of the Moon is Illuminated
Jan 11
Waning Gibbous
Jan 14
Last Quarter
Jan 21
New
Jan 29
First Quarter
Feb 6
Full

Hourly Weather History & Observations

Time (CST) Temp. Windchill Dew Point Humidity Pressure Visibility Wind Dir Wind Speed Gust Speed Precip Events Conditions
12:05 AM 28.4 °F 23.3 °F 19.4 °F 69% 30.22 in 10.0 mi SSW 4.6 mph - N/A   Clear
12:25 AM 28.4 °F 21.2 °F 19.4 °F 69% 30.21 in 10.0 mi South 6.9 mph - N/A   Clear
12:45 AM 28.4 °F 20.4 °F 19.4 °F 69% 30.21 in 10.0 mi South 8.1 mph - N/A   Clear
1:05 AM 28.4 °F 21.2 °F 19.4 °F 69% 30.20 in 10.0 mi South 6.9 mph - N/A   Clear
1:25 AM 28.4 °F 22.2 °F 21.2 °F 74% 30.20 in 10.0 mi SSW 5.8 mph - N/A   Clear
1:45 AM 28.4 °F 20.4 °F 21.2 °F 74% 30.19 in 10.0 mi SSW 8.1 mph - N/A   Clear
2:05 AM 28.4 °F 19.7 °F 21.2 °F 74% 30.18 in 10.0 mi South 9.2 mph - N/A   Clear
2:25 AM 28.4 °F 19.7 °F 21.2 °F 74% 30.18 in 10.0 mi South 9.2 mph - N/A   Clear
2:45 AM 28.4 °F 19.7 °F 21.2 °F 74% 30.17 in 10.0 mi SSW 9.2 mph - N/A   Clear
3:05 AM 28.4 °F 19.7 °F 21.2 °F 74% 30.17 in 10.0 mi South 9.2 mph - N/A   Clear
3:25 AM 28.4 °F 20.4 °F 21.2 °F 74% 30.16 in 10.0 mi South 8.1 mph - N/A   Clear
3:45 AM 28.4 °F 20.4 °F 23.0 °F 80% 30.15 in 10.0 mi South 8.1 mph - N/A   Clear
4:05 AM 28.4 °F 19.7 °F 23.0 °F 80% 30.14 in 10.0 mi South 9.2 mph - N/A   Clear
4:25 AM 30.2 °F 21.9 °F 23.0 °F 75% 30.13 in 10.0 mi South 9.2 mph - N/A   Clear
4:45 AM 30.2 °F 21.9 °F 24.8 °F 80% 30.13 in 10.0 mi SSW 9.2 mph - N/A   Clear
5:05 AM 30.2 °F 22.6 °F 24.8 °F 80% 30.11 in 10.0 mi South 8.1 mph - N/A   Clear
5:25 AM 30.2 °F 21.9 °F 24.8 °F 80% 30.11 in 10.0 mi South 9.2 mph - N/A   Clear
5:45 AM 30.2 °F 21.9 °F 26.6 °F 86% 30.10 in 10.0 mi South 9.2 mph - N/A   Clear
6:05 AM 30.2 °F 21.9 °F 26.6 °F 86% 30.10 in 10.0 mi SSW 9.2 mph - N/A   Clear
6:25 AM 30.2 °F 21.9 °F 26.6 °F 86% 30.09 in 10.0 mi SSW 9.2 mph - N/A   Clear
6:45 AM 30.2 °F 21.9 °F 26.6 °F 86% 30.07 in 10.0 mi South 9.2 mph - N/A   Clear
7:05 AM 32.0 °F 23.6 °F 26.6 °F 80% 30.07 in 10.0 mi SSW 10.4 mph - N/A   Clear
7:25 AM 32.0 °F 24.2 °F 28.4 °F 87% 30.05 in 10.0 mi South 9.2 mph - N/A   Clear
7:45 AM 32.0 °F 23.6 °F 28.4 °F 87% 30.04 in 10.0 mi South 10.4 mph - N/A   Clear
8:05 AM 32.0 °F 23.6 °F 26.6 °F 80% 30.04 in 10.0 mi SSW 10.4 mph - N/A   Clear
8:25 AM 32.0 °F 23.6 °F 26.6 °F 80% 30.05 in 10.0 mi SSW 10.4 mph - N/A   Clear
8:45 AM 33.8 °F 25.8 °F 28.4 °F 81% 30.04 in 10.0 mi South 10.4 mph - N/A   Clear
9:05 AM 33.8 °F 24.3 °F 28.4 °F 81% 30.03 in 10.0 mi SSW 13.8 mph 19.6 mph N/A   Clear
9:25 AM 35.6 °F 27.5 °F 30.2 °F 81% 30.04 in 10.0 mi SSW 11.5 mph 18.4 mph N/A   Clear
9:45 AM 35.6 °F 26.6 °F 28.4 °F 75% 30.03 in 10.0 mi SSW 13.8 mph - N/A   Clear
10:05 AM 39.2 °F 31.2 °F 30.2 °F 70% 30.02 in 10.0 mi SSW 13.8 mph 20.7 mph N/A   Clear
10:25 AM 41.0 °F 33.1 °F 30.2 °F 65% 30.00 in 10.0 mi SW 15.0 mph 23.0 mph N/A   Clear
10:45 AM 44.6 °F 37.2 °F 32.0 °F 61% 30.00 in 10.0 mi SW 17.3 mph 23.0 mph N/A   Clear
11:05 AM 46.4 °F 39.2 °F 32.0 °F 57% 29.99 in 10.0 mi SW 18.4 mph 28.8 mph N/A   Clear
11:25 AM 46.4 °F 39.2 °F 32.0 °F 57% 29.98 in 10.0 mi WSW 18.4 mph 32.2 mph N/A   Clear
11:45 AM 46.4 °F 40.7 °F 32.0 °F 57% 29.98 in 10.0 mi WSW 12.7 mph 25.3 mph N/A   Clear
12:05 PM 46.4 °F 38.7 °F 32.0 °F 57% 29.97 in 10.0 mi WSW 20.7 mph 28.8 mph N/A   Clear
12:25 PM 46.4 °F 39.8 °F 32.0 °F 57% 29.96 in 10.0 mi WSW 16.1 mph 24.2 mph N/A   Clear
12:45 PM 46.4 °F 40.1 °F 32.0 °F 57% 29.95 in 10.0 mi WSW 15.0 mph 25.3 mph N/A   Clear
1:05 PM 50.0 °F - 32.0 °F 50% 29.95 in 10.0 mi WSW 16.1 mph 26.5 mph N/A   Clear
1:25 PM 50.0 °F - 33.8 °F 54% 29.95 in 10.0 mi West 16.1 mph 20.7 mph N/A   Clear
1:45 PM 50.0 °F - 32.0 °F 50% 29.94 in 10.0 mi WSW 17.3 mph 25.3 mph N/A   Clear
2:05 PM 50.0 °F - 32.0 °F 50% 29.95 in 10.0 mi WSW 20.7 mph 29.9 mph N/A   Clear
2:25 PM 51.8 °F - 33.8 °F 50% 29.95 in 10.0 mi WSW 19.6 mph 25.3 mph N/A   Clear
2:45 PM 51.8 °F - 33.8 °F 50% 29.95 in 10.0 mi WSW 19.6 mph 26.5 mph N/A   Clear
3:05 PM 51.8 °F - 33.8 °F 50% 29.95 in 10.0 mi WSW 16.1 mph 25.3 mph N/A   Clear
3:25 PM 51.8 °F - 33.8 °F 50% 29.96 in 10.0 mi WSW 13.8 mph 24.2 mph N/A   Clear
3:45 PM 51.8 °F - 33.8 °F 50% 29.97 in 10.0 mi WSW 16.1 mph 21.9 mph N/A   Clear
4:05 PM 50.0 °F - 33.8 °F 54% 29.97 in 10.0 mi WSW 12.7 mph 19.6 mph N/A   Clear
4:25 PM 48.2 °F - 33.8 °F 58% 29.98 in 10.0 mi WSW 11.5 mph 17.3 mph N/A   Clear
4:45 PM 46.4 °F 41.9 °F 32.0 °F 57% 29.99 in 10.0 mi WSW 9.2 mph - N/A   Clear
5:05 PM 46.4 °F 41.1 °F 33.8 °F 62% 29.99 in 10.0 mi WSW 11.5 mph - N/A   Clear
5:25 PM 46.4 °F 41.9 °F 33.8 °F 62% 29.99 in 10.0 mi WSW 9.2 mph - N/A   Clear
5:45 PM 46.4 °F 42.4 °F 33.8 °F 62% 30.00 in 10.0 mi WSW 8.1 mph - N/A   Clear
6:05 PM 44.6 °F 40.7 °F 33.8 °F 66% 30.00 in 10.0 mi WSW 6.9 mph - N/A   Clear
6:25 PM 44.6 °F 39.7 °F 33.8 °F 66% 30.00 in 10.0 mi WSW 9.2 mph - N/A   Clear
6:45 PM 44.6 °F 40.7 °F 33.8 °F 66% 30.00 in 10.0 mi WSW 6.9 mph - N/A   Clear
7:05 PM 44.6 °F 39.7 °F 33.8 °F 66% 30.00 in 10.0 mi WSW 9.2 mph - N/A   Clear
7:25 PM 44.6 °F 40.2 °F 33.8 °F 66% 30.01 in 10.0 mi WSW 8.1 mph - N/A   Clear
7:45 PM 44.6 °F 38.8 °F 33.8 °F 66% 30.01 in 10.0 mi WSW 11.5 mph - N/A   Clear
8:05 PM 44.6 °F 38.8 °F 33.8 °F 66% 30.01 in 10.0 mi WSW 11.5 mph 16.1 mph N/A   Clear
8:25 PM 44.6 °F 40.2 °F 33.8 °F 66% 30.02 in 10.0 mi West 8.1 mph - N/A   Clear
8:45 PM 42.8 °F 38.6 °F 32.0 °F 66% 30.03 in 10.0 mi West 6.9 mph - N/A   Clear
9:05 PM 41.0 °F 35.8 °F 32.0 °F 70% 30.04 in 10.0 mi West 8.1 mph - N/A   Clear
9:25 PM 41.0 °F 35.8 °F 32.0 °F 70% 30.04 in 10.0 mi West 8.1 mph - N/A   Clear
9:45 PM 41.0 °F 35.8 °F 32.0 °F 70% 30.05 in 10.0 mi West 8.1 mph - N/A   Clear
10:05 PM 41.0 °F 35.8 °F 32.0 °F 70% 30.05 in 10.0 mi West 8.1 mph - N/A   Clear
10:25 PM 41.0 °F 36.4 °F 32.0 °F 70% 30.06 in 10.0 mi WSW 6.9 mph - N/A   Clear
10:45 PM 41.0 °F 37.1 °F 32.0 °F 70% 30.07 in 10.0 mi WSW 5.8 mph - N/A   Clear
11:05 PM 39.2 °F 35.0 °F 32.0 °F 75% 30.07 in 10.0 mi WSW 5.8 mph - N/A   Clear
11:25 PM 39.2 °F 35.9 °F 32.0 °F 75% 30.07 in 10.0 mi West 4.6 mph - N/A   Clear
11:45 PM 39.2 °F 35.9 °F 32.0 °F 75% 30.07 in 10.0 mi West 4.6 mph - N/A   Clear